Aérodrome :
LOGIN :

S'inscrire | Disclaimer

   EN    FR    IT 

 










Légende :    VFR   VFR Marginal   IFR   IFR Intensif   IFR Très Intensif
Visi : 
Plafond : 
>= 8 km
>= 3000ft
5 à 8 km
1000 à 3000 ft
1500m à 5 km
500 à 1000 ft
800 à 1500m
200 à 500 ft
< 800m
< 200 ft
Symboles :   Orages  Brouillard  Fortes neiges  Fortes précipitations  Vent > 20 kt
SIGMETs :   Divers  Orages  Givrage  Turbulence  Onde Orograph.  Cendres Volcan.







- Altitude de l'aérodrome : 636 ft


LPBJ - Beja Air Base

DERNIER METAR :
  • 230300Z 08005KT CAVOK 16/14 Q1021

METARs EXPIRÉS :
  • 230200Z 09001KT CAVOK 16/14 Q1021
  • 230100Z 07003KT CAVOK 16/14 Q1021

TAF TAF LPBJ
Valide du 23 à 00h jusqu'au 24 à 00h UTC


222304Z 2300/2324 VRB02KT 9999 FEW030
TEMPO 2308/2317 6000 -SHRA SCT023
BECMG 2309/2311 15010KT SCT025
PROB40
TEMPO 2310/2313 3000 SHRA BKN022 SCT030CB
BECMG 2314/2317 06005KT
Pas de NOTAMs connus pour ce terrain.



MET'MAP, la Météo Aéronautique d'un coup d'oeil ! - Copyright ORBIFLY Décembre 2007 - Disclaimer

ORBIFLY MET'MAP TEAM :

Programmation & Développement : Alexandra Zaïnal
Conception & Développement : Baudouin d'Aumeries
Co-Programmation & Développement : Marc-Olivier Méhu
Soutien technique & logistique : Manuel Goepfert

Contact : metmap@orbifly.com




SOURCES & CREDITS :

   NOAA